SLC Intl Airport
, Salt Lake City
Last Weather Update:09/29/2011 11:00:00 PM
Date
ETo
ETc
Rain
Irrigation
Req
Temp
Max
Temp
Min
Temp
Avg
Avg RH
Avg Wind
Avg Solar
inches
inches
incehs
inches
F
F
F
%
%
watts/m2
08/01/2011 0.18" 0.16" 0.44" -0.19" 81.0° 65.6° 72.9° 67.7% 4.5 MPH 242.4w/m2
08/02/2011 0.25" 0.22" 0.02" 0.20" 88.7° 63.9° 75.7° 53.6% 4.4 MPH 315.9w/m2
08/03/2011 0.25" 0.22" 0.00" 0.22" 85.9° 66.7° 76.2° 49.6% 6.2 MPH 289.7w/m2
08/04/2011 0.26" 0.22" 0.01" 0.22" 90.6° 68.5° 78.2° 42.6% 7.1 MPH 262.3w/m2
08/05/2011 0.30" 0.26" 0.00" 0.26" 90.5° 68.3° 79.3° 31.5% 5.9 MPH 349.5w/m2
08/06/2011 0.32" 0.28" 0.00" 0.28" 94.9° 64.2° 79.7° 26.5% 5.4 MPH 354.1w/m2
08/07/2011 0.32" 0.27" 0.00" 0.27" 92.4° 65.7° 78.9° 28.4% 5.7 MPH 352.5w/m2
08/08/2011 0.30" 0.25" 0.00" 0.25" 92.4° 66.8° 80.4° 24.8% 4.8 MPH 347.7w/m2
08/09/2011 0.31" 0.26" 0.00" 0.26" 89.6° 69.8° 79.7° 23.4% 5.3 MPH 352.9w/m2
08/10/2011 0.29" 0.24" 0.00" 0.24" 90.9° 62.2° 78.1° 29.1% 4.6 MPH 346.2w/m2
08/11/2011 0.29" 0.24" 0.00" 0.24" 90.0° 65.7° 79.5° 26.8% 4.9 MPH 344.9w/m2
08/12/2011 0.27" 0.22" 0.00" 0.22" 89.2° 63.8° 76.4° 38.6% 3.9 MPH 344.2w/m2
08/13/2011 0.33" 0.27" 0.00" 0.27" 98.8° 66.8° 82.2° 29.0% 7.3 MPH 329.7w/m2
08/14/2011 0.27" 0.22" 0.00" 0.22" 93.0° 68.8° 81.7° 35.1% 6.4 MPH 300.4w/m2
08/15/2011 0.26" 0.21" 0.09" 0.14" 86.8° 64.7° 75.9° 49.6% 8.6 MPH 293.6w/m2
08/16/2011 0.25" 0.20" 0.00" 0.20" 85.3° 61.0° 74.6° 43.4% 4.3 MPH 329.6w/m2
08/17/2011 0.28" 0.22" 0.00" 0.22" 92.5° 66.2° 79.5° 32.3% 5.1 MPH 304.9w/m2
08/18/2011 0.29" 0.23" 0.00" 0.23" 92.7° 65.3° 80.1° 26.5% 5.5 MPH 323.3w/m2
08/19/2011 0.25" 0.19" 0.00" 0.19" 92.8° 72.3° 81.5° 38.0% 5.1 MPH 270.2w/m2
08/20/2011 0.28" 0.21" 0.00" 0.21" 95.5° 72.8° 82.2° 34.1% 6.9 MPH 274.3w/m2
08/21/2011 0.33" 0.25" 0.00" 0.25" 96.3° 72.3° 83.8° 29.6% 8.4 MPH 312.8w/m2
08/22/2011 0.30" 0.23" 0.00" 0.23" 96.1° 72.0° 83.9° 28.9% 6.8 MPH 290.2w/m2
08/23/2011 0.30" 0.22" 0.00" 0.22" 95.4° 70.5° 82.9° 28.9% 5.4 MPH 317.4w/m2
08/24/2011 0.29" 0.22" 0.00" 0.22" 100.3° 69.5° 85.0° 27.4% 5.1 MPH 310.6w/m2
08/25/2011 0.33" 0.24" 0.00" 0.24" 98.3° 77.7° 86.3° 27.6% 8.7 MPH 273.4w/m2
08/26/2011 0.30" 0.22" 0.00" 0.22" 98.4° 74.7° 85.8° 28.7% 7.9 MPH 270.0w/m2
08/27/2011 0.27" 0.20" 0.00" 0.20" 96.5° 74.0° 85.2° 34.3% 6.4 MPH 268.4w/m2
08/28/2011 0.23" 0.17" 0.11" 0.08" 91.2° 66.6° 78.5° 52.4% 6.5 MPH 273.2w/m2
08/29/2011 0.26" 0.19" 0.01" 0.18" 91.7° 66.6° 78.1° 50.5% 7.1 MPH 305.5w/m2
08/30/2011 0.28" 0.19" 0.00" 0.19" 94.7° 71.1° 81.8° 34.1% 7.3 MPH 271.5w/m2
08/31/2011 0.35" 0.25" 0.00" 0.25" 96.7° 71.3° 83.9° 24.7% 10.3 MPH 280.3w/m2
Totals: 8.80" 7.00" 0.68" 6.46" 100.3° 61.0° 80.3° 35.4% 6.2 MPH 306.5w/m2